createdAt,value
2023-07-27T00:01:14.412Z,0.60
2023-07-27T00:03:43.458Z,0.60
2023-07-27T00:06:13.417Z,0.60
2023-07-27T00:08:42.341Z,0.53
2023-07-27T00:11:11.206Z,0.60
2023-07-27T00:13:42.576Z,0.60
2023-07-27T00:16:15.621Z,0.53
2023-07-27T00:18:44.575Z,0.50
2023-07-27T00:21:16.786Z,0.50
2023-07-27T00:23:46.752Z,0.60
2023-07-27T00:26:15.982Z,0.60
2023-07-27T00:28:46.327Z,0.80
2023-07-27T00:31:16.304Z,0.40
2023-07-27T00:33:46.230Z,0.80
2023-07-27T00:36:16.533Z,0.50
2023-07-27T00:38:48.240Z,0.50
2023-07-27T00:41:18.280Z,0.53
2023-07-27T00:43:48.768Z,0.70
2023-07-27T00:46:19.022Z,0.60
2023-07-27T00:48:48.169Z,0.40
2023-07-27T00:51:18.154Z,0.60
2023-07-27T00:53:47.611Z,0.60
2023-07-27T00:56:17.361Z,0.50
2023-07-27T00:58:48.932Z,0.33
2023-07-27T01:01:19.573Z,0.50
2023-07-27T01:03:49.946Z,0.60
2023-07-27T01:06:20.105Z,0.70
2023-07-27T01:08:50.236Z,0.60
2023-07-27T01:11:26.806Z,0.47
2023-07-27T01:14:07.244Z,0.50
2023-07-27T01:16:42.034Z,0.57
2023-07-27T01:19:28.795Z,0.70
2023-07-27T01:22:18.604Z,0.33
2023-07-27T01:25:18.721Z,0.50
2023-07-27T01:27:58.890Z,0.50
2023-07-27T01:30:59.348Z,0.50
2023-07-27T01:33:40.330Z,0.70
2023-07-27T01:36:13.609Z,0.50
2023-07-27T01:38:52.852Z,0.50
2023-07-27T01:41:25.045Z,0.50
2023-07-27T01:43:59.108Z,0.57
2023-07-27T01:46:33.424Z,0.70
2023-07-27T01:49:05.373Z,0.70
2023-07-27T01:51:36.220Z,0.50
2023-07-27T01:54:11.048Z,0.60
2023-07-27T01:56:40.297Z,0.57
2023-07-27T01:59:10.258Z,0.50
2023-07-27T02:01:44.759Z,0.60
2023-07-27T02:04:16.600Z,0.60
2023-07-27T02:06:52.084Z,0.80
2023-07-27T02:09:22.429Z,0.53
2023-07-27T02:11:58.442Z,0.50
2023-07-27T02:14:33.120Z,0.50
2023-07-27T02:17:14.794Z,0.80
2023-07-27T02:19:46.911Z,0.70
2023-07-27T02:22:18.242Z,0.50
2023-07-27T02:24:47.598Z,0.40
2023-07-27T02:27:17.798Z,0.63
2023-07-27T02:29:49.048Z,0.50
2023-07-27T02:32:20.577Z,0.60
2023-07-27T02:34:49.629Z,0.50
2023-07-27T02:37:25.771Z,0.70
2023-07-27T02:40:23.188Z,0.60
2023-07-27T02:42:57.289Z,0.60
2023-07-27T02:45:26.385Z,0.70
2023-07-27T02:48:03.830Z,0.43
2023-07-27T02:50:33.450Z,0.40
2023-07-27T02:53:09.291Z,0.60
2023-07-27T02:55:44.591Z,0.93
2023-07-27T02:58:13.656Z,0.70
2023-07-27T03:00:42.783Z,0.77
2023-07-27T03:03:15.286Z,0.40
2023-07-27T03:05:45.626Z,0.63
2023-07-27T03:08:19.209Z,0.67
2023-07-27T03:10:51.360Z,0.50
2023-07-27T03:13:48.833Z,0.60
2023-07-27T03:16:19.710Z,0.60
2023-07-27T03:18:52.068Z,0.43
2023-07-27T03:21:21.928Z,0.60
2023-07-27T03:23:51.511Z,0.43
2023-07-27T03:26:22.697Z,0.50
2023-07-27T03:28:51.474Z,0.60
2023-07-27T03:31:25.298Z,0.60
2023-07-27T03:33:56.959Z,0.70
2023-07-27T03:36:26.557Z,0.73
2023-07-27T03:38:57.719Z,0.80
2023-07-27T03:41:28.639Z,0.60
2023-07-27T03:43:58.022Z,0.70
2023-07-27T03:46:26.899Z,0.67
2023-07-27T03:48:57.702Z,0.50
2023-07-27T03:51:26.677Z,0.70
2023-07-27T03:54:00.187Z,0.90
2023-07-27T03:56:39.203Z,0.60
2023-07-27T03:59:08.373Z,0.70
2023-07-27T04:01:39.187Z,0.90
2023-07-27T04:04:13.760Z,0.63
2023-07-27T04:06:43.723Z,0.30
2023-07-27T04:09:13.636Z,0.60
2023-07-27T04:11:50.503Z,0.77
2023-07-27T04:14:33.525Z,0.70
2023-07-27T04:17:04.400Z,0.63
2023-07-27T04:19:37.446Z,0.70
2023-07-27T04:22:06.801Z,0.60
2023-07-27T04:24:36.800Z,0.60
2023-07-27T04:27:11.815Z,0.60
2023-07-27T04:29:41.756Z,0.50
2023-07-27T04:32:11.027Z,0.50
2023-07-27T04:34:43.242Z,0.60
2023-07-27T04:37:12.141Z,0.60
2023-07-27T04:39:42.910Z,0.80
2023-07-27T04:42:21.369Z,0.70
2023-07-27T04:44:52.304Z,0.60
2023-07-27T04:47:25.067Z,0.60
2023-07-27T04:49:56.464Z,0.60
2023-07-27T04:52:27.287Z,0.70
2023-07-27T04:54:56.084Z,0.90
2023-07-27T04:57:24.975Z,0.73
2023-07-27T04:59:53.898Z,0.60
2023-07-27T05:02:22.836Z,0.60
2023-07-27T05:04:52.869Z,0.70
2023-07-27T05:07:23.648Z,0.57
2023-07-27T05:09:52.425Z,0.70
2023-07-27T05:12:21.957Z,0.73
2023-07-27T05:14:52.187Z,0.90
2023-07-27T05:17:21.034Z,0.50
2023-07-27T05:19:50.100Z,0.60
2023-07-27T05:22:18.920Z,0.60
2023-07-27T05:24:49.358Z,0.50
2023-07-27T05:27:18.104Z,0.60
2023-07-27T05:29:46.919Z,0.60
2023-07-27T05:32:15.824Z,0.50
2023-07-27T05:34:45.593Z,0.53
2023-07-27T05:37:15.043Z,0.50
2023-07-27T05:39:43.973Z,0.60
2023-07-27T05:42:14.227Z,1.00
2023-07-27T05:44:43.983Z,0.50
2023-07-27T05:47:12.946Z,0.50
2023-07-27T05:49:41.886Z,0.50
2023-07-27T05:52:10.797Z,0.50
2023-07-27T05:54:39.612Z,0.80
2023-07-27T05:57:08.380Z,0.80
2023-07-27T05:59:40.188Z,0.73
2023-07-27T06:02:10.684Z,0.60
2023-07-27T06:04:39.514Z,0.70
2023-07-27T06:07:08.706Z,1.00
2023-07-27T06:09:38.251Z,0.67
2023-07-27T06:12:12.862Z,0.50
2023-07-27T06:14:43.265Z,0.50
2023-07-27T06:17:12.027Z,0.40
2023-07-27T06:19:40.659Z,0.40
2023-07-27T06:22:09.386Z,0.50
2023-07-27T06:24:38.227Z,0.80
2023-07-27T06:27:08.246Z,0.47
2023-07-27T06:29:37.082Z,0.60
2023-07-27T06:32:08.306Z,0.63
2023-07-27T06:34:37.093Z,0.70
2023-07-27T06:37:07.175Z,1.42
2023-07-27T06:39:36.024Z,1.02
2023-07-27T06:42:04.994Z,0.90
2023-07-27T06:44:35.743Z,0.65
2023-07-27T06:47:06.049Z,0.80
2023-07-27T06:49:37.488Z,1.10
2023-07-27T06:52:10.474Z,1.42
2023-07-27T06:54:41.083Z,1.30
2023-07-27T06:57:11.594Z,1.20
2023-07-27T06:59:40.361Z,1.58
2023-07-27T07:02:09.426Z,1.77
2023-07-27T07:04:40.666Z,1.40
2023-07-27T07:07:10.183Z,1.40
2023-07-27T07:09:38.950Z,1.33
2023-07-27T07:12:08.306Z,1.30
2023-07-27T07:14:37.195Z,1.00
2023-07-27T07:17:07.332Z,1.30
2023-07-27T07:19:36.084Z,1.08
2023-07-27T07:22:07.278Z,0.93
2023-07-27T07:24:36.102Z,1.10
2023-07-27T07:27:05.237Z,1.30
2023-07-27T07:29:34.050Z,1.20
2023-07-27T07:32:02.853Z,1.30
2023-07-27T07:34:34.982Z,1.48
2023-07-27T07:37:05.758Z,1.20
2023-07-27T07:39:34.544Z,1.30
2023-07-27T07:42:03.376Z,1.00
2023-07-27T07:44:32.230Z,1.00
2023-07-27T07:47:01.013Z,1.10
2023-07-27T07:49:29.813Z,1.30
2023-07-27T07:51:58.590Z,1.00
2023-07-27T07:54:30.234Z,1.10
2023-07-27T07:56:59.088Z,0.88
2023-07-27T07:59:27.852Z,1.23
2023-07-27T08:01:56.782Z,1.10
2023-07-27T08:04:25.582Z,0.70
2023-07-27T08:06:54.349Z,0.82
2023-07-27T08:09:23.137Z,0.98
2023-07-27T08:11:53.822Z,0.73
2023-07-27T08:14:22.949Z,0.63
2023-07-27T08:16:51.791Z,0.80
2023-07-27T08:19:20.740Z,0.60
2023-07-27T08:21:49.503Z,0.65
2023-07-27T08:24:18.957Z,0.60
2023-07-27T08:26:48.612Z,0.70
2023-07-27T08:29:18.861Z,0.82
2023-07-27T08:31:47.692Z,0.63
2023-07-27T08:34:16.481Z,0.60
2023-07-27T08:36:48.651Z,0.80
2023-07-27T08:39:17.783Z,0.63
2023-07-27T08:41:46.759Z,0.80
2023-07-27T08:44:16.829Z,0.95
2023-07-27T08:46:48.296Z,0.70
2023-07-27T08:49:17.749Z,0.60
2023-07-27T08:51:47.153Z,0.80
2023-07-27T08:54:16.135Z,0.77
2023-07-27T08:56:44.892Z,0.75
2023-07-27T08:59:14.120Z,0.60
2023-07-27T09:01:43.025Z,0.63
2023-07-27T09:04:14.234Z,0.73
2023-07-27T09:06:46.182Z,0.70
2023-07-27T09:09:19.643Z,0.88
2023-07-27T09:11:48.621Z,0.80
2023-07-27T09:14:19.910Z,0.73
2023-07-27T09:16:50.493Z,0.68
2023-07-27T09:19:21.453Z,0.57
2023-07-27T09:21:51.719Z,0.60
2023-07-27T09:24:20.660Z,0.70
2023-07-27T09:26:51.047Z,0.60
2023-07-27T09:29:21.905Z,0.65
2023-07-27T09:31:52.020Z,0.70
2023-07-27T09:34:23.300Z,0.70
2023-07-27T09:36:53.700Z,0.73
2023-07-27T09:39:22.777Z,0.77
2023-07-27T09:41:53.351Z,0.70
2023-07-27T09:44:22.847Z,0.80
2023-07-27T09:46:51.659Z,0.60
2023-07-27T09:49:22.477Z,0.73
2023-07-27T09:51:53.104Z,0.88
2023-07-27T09:54:23.696Z,0.90
2023-07-27T09:56:53.640Z,0.80
2023-07-27T09:59:25.685Z,0.73
2023-07-27T10:01:57.826Z,0.60
2023-07-27T10:04:28.119Z,0.90
2023-07-27T10:06:59.943Z,1.10
2023-07-27T10:09:28.646Z,0.82
2023-07-27T10:11:58.396Z,0.85
2023-07-27T10:14:28.549Z,0.70
2023-07-27T10:17:02.320Z,0.75
2023-07-27T10:19:49.306Z,0.70
2023-07-27T10:22:21.165Z,0.73
2023-07-27T10:24:54.648Z,0.90
2023-07-27T10:27:26.156Z,0.80
2023-07-27T10:30:17.822Z,0.90
2023-07-27T10:33:17.028Z,0.82
2023-07-27T10:36:06.309Z,1.10
2023-07-27T10:38:35.519Z,0.63
2023-07-27T10:41:17.169Z,0.98
2023-07-27T10:44:19.617Z,0.80
2023-07-27T10:46:57.777Z,0.75
2023-07-27T10:49:28.089Z,0.75
2023-07-27T10:52:00.332Z,0.90
2023-07-27T10:54:29.629Z,1.13
2023-07-27T10:56:59.299Z,0.80
2023-07-27T10:59:30.877Z,1.00
2023-07-27T11:01:59.919Z,0.80
2023-07-27T11:04:29.141Z,0.98
2023-07-27T11:06:59.375Z,1.10
2023-07-27T11:09:34.303Z,1.00
2023-07-27T11:12:03.539Z,0.93
2023-07-27T11:14:32.642Z,1.38
2023-07-27T11:17:01.724Z,1.00
2023-07-27T11:19:30.566Z,1.10
2023-07-27T11:22:01.740Z,0.90
2023-07-27T11:24:31.945Z,0.90
2023-07-27T11:27:01.736Z,1.13
2023-07-27T11:29:30.637Z,0.90
2023-07-27T11:32:01.336Z,0.82
2023-07-27T11:34:32.268Z,0.82
2023-07-27T11:37:03.742Z,1.00
2023-07-27T11:39:33.756Z,1.00
2023-07-27T11:42:11.824Z,1.10
2023-07-27T11:44:41.612Z,0.70
2023-07-27T11:47:10.532Z,0.85
2023-07-27T11:49:40.021Z,1.15
2023-07-27T11:52:11.360Z,0.73
2023-07-27T11:54:42.574Z,0.63
2023-07-27T11:57:17.275Z,0.80
2023-07-27T12:00:01.164Z,0.80
2023-07-27T12:02:34.629Z,1.10
2023-07-27T12:05:03.942Z,0.70
2023-07-27T12:12:49.916Z,0.77
2023-07-27T12:15:30.404Z,0.77
2023-07-27T12:18:00.518Z,0.60
2023-07-27T12:30:44.097Z,0.65
2023-07-27T12:33:13.413Z,0.60
2023-07-27T12:35:42.401Z,0.70
2023-07-27T12:43:17.197Z,0.70
2023-07-27T12:45:46.040Z,0.68
2023-07-27T12:48:14.950Z,0.68
2023-07-27T12:50:43.737Z,0.70
2023-07-27T12:53:15.046Z,0.70
2023-07-27T12:55:44.015Z,0.70
2023-07-27T12:58:12.855Z,0.85
2023-07-27T13:00:41.821Z,0.57
2023-07-27T13:03:12.677Z,0.70
2023-07-27T13:05:41.689Z,0.65
2023-07-27T13:08:10.453Z,0.77
2023-07-27T13:10:40.862Z,0.50
2023-07-27T13:13:09.730Z,0.60
2023-07-27T13:15:38.878Z,0.60
2023-07-27T13:18:07.904Z,0.70
2023-07-27T13:20:37.722Z,0.80
2023-07-27T13:23:06.884Z,0.60
2023-07-27T13:25:38.529Z,0.60
2023-07-27T13:28:08.986Z,0.70
2023-07-27T13:30:39.075Z,1.02
2023-07-27T13:33:08.106Z,0.73
2023-07-27T13:35:39.194Z,0.80
2023-07-27T13:38:08.155Z,0.98
2023-07-27T13:40:37.079Z,0.77
2023-07-27T13:43:05.908Z,0.75
2023-07-27T13:45:36.127Z,0.63
2023-07-27T13:48:09.810Z,0.52
2023-07-27T13:50:39.449Z,0.85
2023-07-27T13:53:11.394Z,0.70
2023-07-27T13:55:40.332Z,0.75
2023-07-27T13:58:09.332Z,0.50
2023-07-27T14:00:39.868Z,0.60
2023-07-27T14:03:08.859Z,0.60
2023-07-27T14:05:38.136Z,0.80
2023-07-27T14:08:07.549Z,0.95
2023-07-27T14:10:36.464Z,0.60
2023-07-27T14:13:06.103Z,0.82
2023-07-27T14:15:35.044Z,0.80
2023-07-27T14:18:05.591Z,0.85
2023-07-27T14:20:35.728Z,0.70
2023-07-27T14:23:04.789Z,0.80
2023-07-27T14:25:34.820Z,0.90
2023-07-27T14:28:03.815Z,0.90
2023-07-27T14:30:32.792Z,2.28
2023-07-27T14:33:01.656Z,0.90
2023-07-27T14:35:31.938Z,0.75
2023-07-27T14:38:00.839Z,0.60
2023-07-27T14:43:01.392Z,0.80
2023-07-27T14:45:30.870Z,0.90
2023-07-27T14:47:59.837Z,0.85
2023-07-27T14:53:03.119Z,1.00
2023-07-27T14:55:31.954Z,0.98
2023-07-27T14:58:00.872Z,0.90
2023-07-27T15:05:33.652Z,0.80
2023-07-27T15:08:05.037Z,1.20
2023-07-27T15:10:37.896Z,0.90
2023-07-27T15:13:08.209Z,0.80
2023-07-27T15:15:38.068Z,0.60
2023-07-27T15:18:08.948Z,0.80
2023-07-27T15:20:42.104Z,1.00
2023-07-27T15:23:13.549Z,0.80
2023-07-27T15:25:42.493Z,0.90
2023-07-27T15:28:11.313Z,1.00
2023-07-27T15:30:40.412Z,1.10
2023-07-27T15:33:09.393Z,1.08
2023-07-27T15:35:39.550Z,1.10
2023-07-27T15:38:08.477Z,1.40
2023-07-27T15:40:38.821Z,1.10
2023-07-27T15:43:08.229Z,1.05
2023-07-27T15:45:37.102Z,1.25
2023-07-27T15:48:07.750Z,1.00
2023-07-27T15:50:36.779Z,0.93
2023-07-27T15:53:06.595Z,1.08
2023-07-27T15:55:38.757Z,1.00
2023-07-27T15:58:08.960Z,1.20
2023-07-27T16:00:40.784Z,1.25
2023-07-27T16:03:12.718Z,1.20
2023-07-27T16:05:41.656Z,1.45
2023-07-27T16:08:10.382Z,1.58
2023-07-27T16:10:43.858Z,1.50
2023-07-27T16:13:13.206Z,1.50
2023-07-27T16:15:42.041Z,1.23
2023-07-27T16:18:12.615Z,1.55
2023-07-27T16:20:44.414Z,1.35
2023-07-27T16:23:14.793Z,1.98
2023-07-27T16:25:45.787Z,1.20
2023-07-27T16:28:15.679Z,1.40
2023-07-27T16:30:45.289Z,1.00
2023-07-27T16:33:15.204Z,1.10
2023-07-27T16:35:44.112Z,1.20
2023-07-27T16:38:12.915Z,1.00
2023-07-27T16:40:42.064Z,1.52
2023-07-27T16:43:12.315Z,1.23
2023-07-27T16:45:41.197Z,1.00
2023-07-27T16:48:10.305Z,1.38
2023-07-27T16:50:39.146Z,1.15
2023-07-27T16:53:08.018Z,1.20
2023-07-27T16:55:38.193Z,1.10
2023-07-27T16:58:07.157Z,1.00
2023-07-27T17:00:38.641Z,1.30
2023-07-27T17:03:07.786Z,0.98
2023-07-27T17:05:40.314Z,1.30
2023-07-27T17:08:10.887Z,1.48
2023-07-27T17:10:39.867Z,1.10
2023-07-27T17:13:08.800Z,1.25
2023-07-27T17:15:39.761Z,1.00
2023-07-27T17:18:08.708Z,1.02
2023-07-27T17:20:37.867Z,0.98
2023-07-27T17:23:06.833Z,1.00
2023-07-27T17:25:35.833Z,1.17
2023-07-27T17:28:04.739Z,1.00
2023-07-27T17:30:33.703Z,1.00
2023-07-27T17:33:04.123Z,1.08
2023-07-27T17:35:33.056Z,1.15
2023-07-27T17:38:01.950Z,1.20
2023-07-27T17:40:30.790Z,0.90
2023-07-27T17:42:59.662Z,1.23
2023-07-27T17:45:28.441Z,0.70
2023-07-27T17:47:57.288Z,0.80
2023-07-27T17:50:27.648Z,0.93
2023-07-27T17:52:57.505Z,1.23
2023-07-27T17:55:26.426Z,1.08
2023-07-27T17:57:56.050Z,1.23
2023-07-27T18:00:25.045Z,0.80
2023-07-27T18:02:55.137Z,1.92
2023-07-27T18:05:24.068Z,1.10
2023-07-27T18:07:54.412Z,0.73
2023-07-27T18:10:23.311Z,0.90
2023-07-27T18:12:52.134Z,1.00
2023-07-27T18:15:21.103Z,1.35
2023-07-27T18:17:50.008Z,1.20
2023-07-27T18:20:19.026Z,1.08
2023-07-27T18:22:47.925Z,1.00
2023-07-27T18:25:18.296Z,1.40
2023-07-27T18:27:47.212Z,1.05
2023-07-27T18:30:16.282Z,0.88
2023-07-27T18:32:45.275Z,1.00
2023-07-27T18:35:16.220Z,0.90
2023-07-27T18:37:45.310Z,1.20
2023-07-27T18:40:15.378Z,1.00
2023-07-27T18:42:46.790Z,1.10
2023-07-27T18:45:15.848Z,1.83
2023-07-27T18:47:45.260Z,1.00
2023-07-27T18:50:14.064Z,1.17
2023-07-27T18:52:43.984Z,1.20
2023-07-27T18:55:12.808Z,1.20
2023-07-27T18:57:41.678Z,1.00
2023-07-27T19:00:13.752Z,0.93
2023-07-27T19:02:42.753Z,1.20
2023-07-27T19:05:11.605Z,1.10
2023-07-27T19:07:40.405Z,1.70
2023-07-27T19:10:10.889Z,0.90
2023-07-27T19:12:39.820Z,1.25
2023-07-27T19:15:10.274Z,1.05
2023-07-27T19:17:40.586Z,1.23
2023-07-27T19:20:11.198Z,1.00
2023-07-27T19:22:40.068Z,1.10
2023-07-27T19:25:10.678Z,1.08
2023-07-27T19:27:39.680Z,1.40
2023-07-27T19:30:09.735Z,1.60
2023-07-27T19:32:40.746Z,1.30
2023-07-27T19:35:10.505Z,1.20
2023-07-27T19:37:39.338Z,1.40
2023-07-27T19:40:10.111Z,1.10
2023-07-27T19:42:39.004Z,1.15
2023-07-27T19:45:08.951Z,1.15
2023-07-27T19:47:37.821Z,1.50
2023-07-27T19:50:18.558Z,1.25
2023-07-27T19:52:51.382Z,1.30
2023-07-27T19:55:21.349Z,1.13
2023-07-27T19:57:51.201Z,1.52
2023-07-27T20:00:20.312Z,1.10
2023-07-27T20:02:49.793Z,1.08
2023-07-27T20:05:20.119Z,1.55
2023-07-27T20:07:49.266Z,1.00
2023-07-27T20:10:18.130Z,0.90
2023-07-27T20:12:46.886Z,1.38
2023-07-27T20:15:15.712Z,1.60
2023-07-27T20:17:45.662Z,1.20
2023-07-27T20:20:15.073Z,1.45
2023-07-27T20:22:45.323Z,0.95
2023-07-27T20:25:14.672Z,0.80
2023-07-27T20:27:43.654Z,1.65
2023-07-27T20:30:13.039Z,1.10
2023-07-27T20:32:43.595Z,1.20
2023-07-27T20:35:12.977Z,1.27
2023-07-27T20:37:41.818Z,1.38
2023-07-27T20:40:13.254Z,1.27
2023-07-27T20:42:42.135Z,1.00
2023-07-27T20:45:11.577Z,1.50
2023-07-27T20:47:40.496Z,1.40
2023-07-27T20:50:12.014Z,1.35
2023-07-27T20:52:40.892Z,1.20
2023-07-27T20:55:11.813Z,1.23
2023-07-27T20:57:40.665Z,1.00
2023-07-27T21:00:10.525Z,1.40
2023-07-27T21:02:39.489Z,1.00
2023-07-27T21:05:10.367Z,1.25
2023-07-27T21:07:39.282Z,1.20
2023-07-27T21:10:09.700Z,1.35
2023-07-27T21:12:39.993Z,1.20
2023-07-27T21:15:09.791Z,1.73
2023-07-27T21:17:38.732Z,1.40
2023-07-27T21:20:10.596Z,1.05
2023-07-27T21:22:39.447Z,1.48
2023-07-27T21:25:08.808Z,1.27
2023-07-27T21:27:37.616Z,1.50
2023-07-27T21:30:09.316Z,0.93
2023-07-27T21:32:38.234Z,1.00
2023-07-27T21:35:08.051Z,1.10
2023-07-27T21:37:37.147Z,1.20
2023-07-27T21:40:13.567Z,1.30
2023-07-27T21:42:43.157Z,1.35
2023-07-27T21:45:13.585Z,0.90
2023-07-27T21:47:42.557Z,0.90
2023-07-27T21:50:12.299Z,1.10
2023-07-27T21:52:41.152Z,0.90
2023-07-27T21:55:10.877Z,1.40
2023-07-27T21:57:39.656Z,1.05
2023-07-27T22:00:10.454Z,1.10
2023-07-27T22:02:40.717Z,1.20
2023-07-27T22:05:09.753Z,0.90
2023-07-27T22:07:38.686Z,1.05
2023-07-27T22:10:08.807Z,1.13
2023-07-27T22:12:39.103Z,1.05
2023-07-27T22:15:09.061Z,1.02
2023-07-27T22:17:37.887Z,1.00
2023-07-27T22:20:10.669Z,1.30
2023-07-27T22:22:39.536Z,1.42
2023-07-27T22:25:09.788Z,1.00
2023-07-27T22:27:38.779Z,1.15
2023-07-27T22:30:08.740Z,1.05
2023-07-27T22:32:37.792Z,1.10
2023-07-27T22:35:08.481Z,0.80
2023-07-27T22:37:38.286Z,1.13
2023-07-27T22:40:08.205Z,1.20
2023-07-27T22:42:38.187Z,1.67
2023-07-27T22:45:07.726Z,1.30
2023-07-27T22:47:36.706Z,1.10
2023-07-27T22:50:08.013Z,1.27
2023-07-27T22:52:38.387Z,1.00
2023-07-27T22:55:08.164Z,1.20
2023-07-27T22:57:40.751Z,1.23
2023-07-27T23:00:10.971Z,1.40
2023-07-27T23:02:39.903Z,1.48
2023-07-27T23:05:11.203Z,1.40
2023-07-27T23:07:41.680Z,1.20
2023-07-27T23:10:10.978Z,1.30
2023-07-27T23:12:39.760Z,1.45
2023-07-27T23:15:09.283Z,1.35
2023-07-27T23:17:38.256Z,1.45
2023-07-27T23:20:09.189Z,1.42
2023-07-27T23:22:38.102Z,1.58
2023-07-27T23:25:09.172Z,1.25
2023-07-27T23:27:38.632Z,1.25
2023-07-27T23:30:08.457Z,1.30
2023-07-27T23:32:37.682Z,1.80
2023-07-27T23:35:07.296Z,1.40
2023-07-27T23:37:36.044Z,1.40
2023-07-27T23:40:08.458Z,1.60
2023-07-27T23:42:38.208Z,2.38
2023-07-27T23:45:08.365Z,1.73
2023-07-27T23:47:38.323Z,2.15
2023-07-27T23:50:07.995Z,1.70
2023-07-27T23:52:36.881Z,1.88
2023-07-27T23:55:07.805Z,2.80
2023-07-27T23:57:36.654Z,2.75
